createdAt,value
2022-12-19T00:00:48.865Z,-3.18
2022-12-19T00:03:18.281Z,-3.18
2022-12-19T00:05:48.211Z,-3.17
2022-12-19T00:08:18.985Z,-3.15
2022-12-19T00:10:59.088Z,-3.15
2022-12-19T00:13:38.098Z,-3.13
2022-12-19T00:16:17.683Z,-3.12
2022-12-19T00:18:50.895Z,-3.10
2022-12-19T00:21:28.058Z,-3.09
2022-12-19T00:23:58.979Z,-3.07
2022-12-19T00:26:30.083Z,-3.06
2022-12-19T00:29:03.335Z,-3.04
2022-12-19T00:31:36.493Z,-3.01
2022-12-19T00:34:05.246Z,-3.00
2022-12-19T00:36:36.529Z,-2.99
2022-12-19T00:39:08.793Z,-2.99
2022-12-19T00:41:42.094Z,-2.98
2022-12-19T00:44:15.101Z,-2.96
2022-12-19T00:46:51.843Z,-2.93
2022-12-19T00:49:22.660Z,-2.92
2022-12-19T00:51:51.708Z,-2.90
2022-12-19T00:54:23.150Z,-2.89
2022-12-19T00:56:53.951Z,-2.87
2022-12-19T00:59:26.740Z,-2.87
2022-12-19T01:01:57.804Z,-2.84
2022-12-19T01:04:29.076Z,-2.84
2022-12-19T01:07:02.541Z,-2.84
2022-12-19T01:09:35.437Z,-2.84
2022-12-19T01:12:24.927Z,-2.84
2022-12-19T01:15:02.898Z,-2.83
2022-12-19T01:17:43.644Z,-2.82
2022-12-19T01:20:16.235Z,-2.79
2022-12-19T01:22:48.167Z,-2.82
2022-12-19T01:25:20.679Z,-2.81
2022-12-19T01:27:49.575Z,-2.81
2022-12-19T01:30:18.993Z,-2.81
2022-12-19T01:32:49.507Z,-2.80
2022-12-19T01:35:22.108Z,-2.77
2022-12-19T01:37:57.544Z,-2.78
2022-12-19T01:40:39.543Z,-2.74
2022-12-19T01:43:14.457Z,-2.73
2022-12-19T01:45:46.077Z,-2.72
2022-12-19T01:48:36.611Z,-2.72
2022-12-19T01:51:15.425Z,-2.70
2022-12-19T01:53:51.109Z,-2.69
2022-12-19T01:56:26.886Z,-2.68
2022-12-19T01:59:06.616Z,-2.66
2022-12-19T02:01:43.384Z,-2.66
2022-12-19T02:04:21.665Z,-2.65
2022-12-19T02:06:56.033Z,-2.65
2022-12-19T02:09:28.804Z,-2.64
2022-12-19T02:12:02.701Z,-2.63
2022-12-19T02:14:32.140Z,-2.64
2022-12-19T02:17:12.574Z,-2.62
2022-12-19T02:20:26.441Z,-2.61
2022-12-19T02:23:30.818Z,-2.61
2022-12-19T02:26:26.095Z,-2.60
2022-12-19T02:29:48.954Z,-2.59
2022-12-19T02:32:27.998Z,-2.57
2022-12-19T02:35:09.169Z,-2.55
2022-12-19T02:37:52.475Z,-2.53
2022-12-19T02:40:28.306Z,-2.53
2022-12-19T02:43:03.065Z,-2.51
2022-12-19T02:45:37.967Z,-2.53
2022-12-19T02:48:11.665Z,-2.50
2022-12-19T02:50:47.991Z,-2.50
2022-12-19T02:53:22.417Z,-2.49
2022-12-19T02:56:12.398Z,-2.46
2022-12-19T02:59:04.478Z,-2.43
2022-12-19T03:01:49.477Z,-2.39
2022-12-19T03:04:43.505Z,-2.39
2022-12-19T03:07:30.204Z,-2.38
2022-12-19T03:10:15.735Z,-2.35
2022-12-19T03:12:55.070Z,-2.35
2022-12-19T03:15:26.167Z,-2.31
2022-12-19T03:18:02.344Z,-2.29
2022-12-19T03:20:46.371Z,-2.29
2022-12-19T03:23:17.079Z,-2.28
2022-12-19T03:25:53.584Z,-2.26
2022-12-19T03:28:35.594Z,-2.24
2022-12-19T03:31:09.603Z,-2.23
2022-12-19T03:33:44.640Z,-2.22
2022-12-19T03:36:22.802Z,-2.19
2022-12-19T03:38:53.253Z,-2.20
2022-12-19T03:41:40.022Z,-2.18
2022-12-19T03:44:12.465Z,-2.16
2022-12-19T03:46:53.049Z,-2.17
2022-12-19T03:49:23.076Z,-2.13
2022-12-19T03:52:02.963Z,-2.13
2022-12-19T03:54:38.546Z,-2.14
2022-12-19T03:57:12.262Z,-2.14
2022-12-19T03:59:51.034Z,-2.13
2022-12-19T04:02:25.523Z,-2.13
2022-12-19T04:05:02.565Z,-2.15
2022-12-19T04:07:36.505Z,-2.12
2022-12-19T04:10:12.601Z,-2.15
2022-12-19T04:12:50.920Z,-2.17
2022-12-19T04:15:26.917Z,-2.16
2022-12-19T04:18:02.436Z,-2.16
2022-12-19T04:20:33.446Z,-2.15
2022-12-19T04:23:14.041Z,-2.16
2022-12-19T04:25:50.482Z,-2.12
2022-12-19T04:28:27.440Z,-2.12
2022-12-19T04:30:57.554Z,-2.10
2022-12-19T04:33:27.558Z,-2.09
2022-12-19T04:35:57.322Z,-2.07
2022-12-19T04:38:29.781Z,-2.05
2022-12-19T04:41:00.367Z,-2.05
2022-12-19T04:43:30.936Z,-2.05
2022-12-19T04:46:00.161Z,-2.05
2022-12-19T04:48:30.968Z,-2.03
2022-12-19T04:51:00.627Z,-2.01
2022-12-19T04:53:30.579Z,-2.04
2022-12-19T04:56:03.537Z,-2.04
2022-12-19T04:58:33.421Z,-2.02
2022-12-19T05:01:04.765Z,-2.00
2022-12-19T05:03:35.151Z,-1.98
2022-12-19T05:06:11.651Z,-1.97
2022-12-19T05:08:44.873Z,-1.97
2022-12-19T05:11:19.755Z,-1.94
2022-12-19T05:13:51.570Z,-1.93
2022-12-19T05:16:22.272Z,-1.92
2022-12-19T05:18:52.004Z,-1.91
2022-12-19T05:21:21.298Z,-1.90
2022-12-19T05:23:52.406Z,-1.89
2022-12-19T05:26:22.529Z,-1.88
2022-12-19T05:28:52.293Z,-1.87
2022-12-19T05:31:24.001Z,-1.87
2022-12-19T05:33:54.953Z,-1.86
2022-12-19T05:36:30.725Z,-1.85
2022-12-19T05:39:03.215Z,-1.84
2022-12-19T05:41:33.433Z,-1.84
2022-12-19T05:44:03.117Z,-1.80
2022-12-19T05:46:31.956Z,-1.79
2022-12-19T05:49:02.768Z,-1.77
2022-12-19T05:51:33.408Z,-1.76
2022-12-19T05:54:05.330Z,-1.75
2022-12-19T05:56:34.295Z,-1.72
2022-12-19T06:18:13.861Z,-2.04
2022-12-19T06:20:44.116Z,-2.04
2022-12-19T06:23:13.151Z,-2.00
2022-12-19T06:25:43.498Z,-1.98
2022-12-19T06:28:14.190Z,-1.93
2022-12-19T06:30:44.223Z,-1.89
2022-12-19T06:33:15.776Z,-1.86
2022-12-19T06:35:46.640Z,-1.82
2022-12-19T06:38:15.910Z,-1.78
2022-12-19T06:41:03.589Z,-1.76
2022-12-19T06:43:32.786Z,-1.73
2022-12-19T06:46:02.822Z,-1.69
2022-12-19T06:48:35.055Z,-1.68
2022-12-19T06:51:04.391Z,-1.66
2022-12-19T06:53:34.572Z,-1.63
2022-12-19T06:56:05.899Z,-1.63
2022-12-19T06:58:36.366Z,-1.60
2022-12-19T07:01:06.592Z,-1.60
2022-12-19T07:03:42.988Z,-1.58
2022-12-19T07:06:13.600Z,-1.56
2022-12-19T07:08:45.176Z,-1.57
2022-12-19T07:11:14.236Z,-1.56
2022-12-19T07:13:42.759Z,-1.54
2022-12-19T07:16:13.038Z,-1.53
2022-12-19T07:18:44.841Z,-1.52
2022-12-19T07:21:15.433Z,-1.49
2022-12-19T07:23:46.005Z,-1.48
2022-12-19T07:26:15.421Z,-1.49
2022-12-19T07:28:46.434Z,-1.49
2022-12-19T07:31:17.751Z,-1.49
2022-12-19T07:33:48.798Z,-1.48
2022-12-19T07:36:18.968Z,-1.46
2022-12-19T07:38:49.050Z,-1.44
2022-12-19T07:41:18.630Z,-1.42
2022-12-19T07:43:48.333Z,-1.42
2022-12-19T07:46:17.321Z,-1.44
2022-12-19T07:48:48.494Z,-1.41
2022-12-19T07:51:18.653Z,-1.39
2022-12-19T07:53:49.808Z,-1.36
2022-12-19T07:56:20.483Z,-1.34
2022-12-19T07:58:50.174Z,-1.33
2022-12-19T08:01:21.381Z,-1.32
2022-12-19T08:03:53.476Z,-1.31
2022-12-19T08:06:22.757Z,-1.28
2022-12-19T08:08:53.020Z,-1.28
2022-12-19T08:11:28.118Z,-1.26
2022-12-19T08:13:58.911Z,-1.24
2022-12-19T08:16:29.696Z,-1.22
2022-12-19T08:19:00.239Z,-1.20
2022-12-19T08:21:31.127Z,-1.17
2022-12-19T08:24:01.492Z,-1.15
2022-12-19T08:26:38.318Z,-1.13
2022-12-19T08:29:10.798Z,-1.08
2022-12-19T08:31:40.836Z,-1.08
2022-12-19T08:34:13.287Z,-1.07
2022-12-19T08:36:43.965Z,-1.05
2022-12-19T08:39:13.070Z,-1.03
2022-12-19T08:41:43.392Z,-1.02
2022-12-19T08:44:14.070Z,-1.00
2022-12-19T08:46:49.780Z,-0.99
2022-12-19T08:49:22.221Z,-0.96
2022-12-19T08:51:52.740Z,-0.94
2022-12-19T08:54:22.786Z,-0.93
2022-12-19T08:56:53.718Z,-0.92
2022-12-19T08:59:30.915Z,-0.89
2022-12-19T09:02:02.147Z,-0.85
2022-12-19T09:05:07.364Z,-0.84
2022-12-19T09:07:24.007Z,-0.81
2022-12-19T09:09:54.684Z,-0.80
2022-12-19T09:12:24.199Z,-0.79
2022-12-19T09:14:54.179Z,-0.77
2022-12-19T09:17:23.194Z,-0.74
2022-12-19T09:19:55.663Z,-0.73
2022-12-19T09:22:29.174Z,-0.72
2022-12-19T09:24:59.589Z,-0.69
2022-12-19T09:27:29.107Z,-0.67
2022-12-19T09:29:57.707Z,-0.65
2022-12-19T09:32:27.709Z,-0.60
2022-12-19T09:34:59.996Z,-0.59
2022-12-19T09:37:29.737Z,-0.59
2022-12-19T09:40:00.508Z,-0.56
2022-12-19T09:42:58.396Z,-0.55
2022-12-19T09:46:04.300Z,-0.52
2022-12-19T09:48:34.960Z,-0.49
2022-12-19T09:51:13.761Z,-0.48
2022-12-19T09:54:00.292Z,-0.47
2022-12-19T09:56:45.695Z,-0.44
2022-12-19T09:59:31.810Z,-0.43
2022-12-19T10:02:52.491Z,-0.42
2022-12-19T10:06:48.616Z,-0.41
2022-12-19T10:08:32.438Z,-0.39
2022-12-19T10:12:40.545Z,-0.36
2022-12-19T10:14:24.045Z,-0.34
2022-12-19T10:17:29.113Z,-0.32
2022-12-19T10:20:28.669Z,-0.32
2022-12-19T10:23:18.658Z,-0.29
2022-12-19T10:26:09.778Z,-0.28
2022-12-19T10:29:00.848Z,-0.27
2022-12-19T10:31:38.445Z,-0.26
2022-12-19T10:34:21.796Z,-0.24
2022-12-19T10:37:21.460Z,-0.22
2022-12-19T10:40:05.161Z,-0.20
2022-12-19T10:42:52.568Z,-0.20
2022-12-19T10:45:26.116Z,-0.18
2022-12-19T10:47:59.884Z,-0.18
2022-12-19T10:50:32.226Z,-0.16
2022-12-19T10:53:11.977Z,-0.15
2022-12-19T10:55:48.384Z,-0.15
2022-12-19T10:58:28.641Z,-0.12
2022-12-19T11:01:14.154Z,-0.12
2022-12-19T11:03:46.875Z,-0.09
2022-12-19T11:06:47.367Z,-0.07
2022-12-19T11:09:41.071Z,-0.07
2022-12-19T11:17:15.462Z,-0.06
2022-12-19T11:23:33.495Z,-0.08
2022-12-19T11:27:03.005Z,-0.09
2022-12-19T11:29:39.897Z,-0.09
2022-12-19T11:29:39.899Z,-0.07
2022-12-19T11:30:47.660Z,-0.07
2022-12-19T11:32:46.237Z,-0.04
2022-12-19T11:35:24.711Z,-0.03
2022-12-19T11:37:59.426Z,-0.01
2022-12-19T11:40:41.757Z,0.01
2022-12-19T11:43:43.597Z,0.03
2022-12-19T11:46:31.507Z,0.06
2022-12-19T11:49:12.975Z,0.08
2022-12-19T11:51:52.561Z,0.11
2022-12-19T11:54:32.772Z,0.13
2022-12-19T11:57:03.774Z,0.17
2022-12-19T11:59:38.760Z,0.17
2022-12-19T12:02:49.634Z,0.19
2022-12-19T12:06:04.841Z,0.24
2022-12-19T12:12:22.429Z,0.25
2022-12-19T12:20:57.685Z,0.26
2022-12-19T12:27:17.361Z,0.29
2022-12-19T12:31:04.928Z,0.31
2022-12-19T12:31:12.176Z,0.33
2022-12-19T12:31:47.729Z,0.35
2022-12-19T12:31:48.345Z,0.35
2022-12-19T12:32:02.267Z,0.36
2022-12-19T12:35:30.672Z,0.37
2022-12-19T12:40:10.760Z,0.44
2022-12-19T12:43:02.340Z,0.47
2022-12-19T12:45:41.444Z,0.49
2022-12-19T12:48:26.771Z,0.52
2022-12-19T12:51:01.148Z,0.52
2022-12-19T12:53:38.560Z,0.54
2022-12-19T12:56:14.210Z,0.55
2022-12-19T12:59:20.320Z,0.55
2022-12-19T13:01:55.135Z,0.59
2022-12-19T13:04:35.476Z,0.60
2022-12-19T13:07:26.932Z,0.60
2022-12-19T13:10:19.875Z,0.62
2022-12-19T13:13:02.932Z,0.65
2022-12-19T13:15:51.646Z,0.64
2022-12-19T13:18:39.957Z,0.67
2022-12-19T13:21:13.756Z,0.71
2022-12-19T13:23:50.449Z,0.70
2022-12-19T13:26:51.338Z,0.70
2022-12-19T13:29:55.666Z,0.73
2022-12-19T13:32:27.779Z,0.74
2022-12-19T13:35:07.052Z,0.75
2022-12-19T13:39:50.343Z,0.77
2022-12-19T13:41:02.055Z,0.78
2022-12-19T13:43:48.310Z,0.79
2022-12-19T13:46:38.489Z,0.80
2022-12-19T13:49:14.614Z,0.79
2022-12-19T13:51:50.216Z,0.83
2022-12-19T13:54:26.176Z,0.81
2022-12-19T13:56:57.385Z,0.80
2022-12-19T13:59:35.357Z,0.80
2022-12-19T14:02:18.214Z,0.81
2022-12-19T14:04:48.517Z,0.79
2022-12-19T14:07:37.405Z,0.84
2022-12-19T14:11:32.204Z,0.85
2022-12-19T14:13:44.427Z,0.84
2022-12-19T14:16:21.624Z,0.82
2022-12-19T14:19:05.405Z,0.79
2022-12-19T14:22:04.658Z,0.79
2022-12-19T14:24:27.331Z,0.82
2022-12-19T14:28:21.292Z,0.81
2022-12-19T14:30:30.131Z,0.80
2022-12-19T14:33:46.857Z,0.83
2022-12-19T14:36:12.419Z,0.82
2022-12-19T14:39:25.379Z,0.80
2022-12-19T14:42:01.798Z,0.79
2022-12-19T14:53:34.272Z,0.78
2022-12-19T14:54:08.902Z,0.78
2022-12-19T14:54:34.136Z,0.75
2022-12-19T14:54:40.044Z,0.78
2022-12-19T14:56:43.749Z,0.73
2022-12-19T14:59:31.534Z,0.72
2022-12-19T15:02:15.849Z,0.69
2022-12-19T15:05:09.815Z,0.67
2022-12-19T15:07:47.831Z,0.64
2022-12-19T15:11:07.819Z,0.66
2022-12-19T15:14:56.644Z,0.62
2022-12-19T15:16:29.097Z,0.59
2022-12-19T15:19:01.011Z,0.58
2022-12-19T15:21:33.291Z,0.56
2022-12-19T15:24:03.558Z,0.53
2022-12-19T15:26:36.935Z,0.52
2022-12-19T15:29:21.477Z,0.55
2022-12-19T15:31:51.614Z,0.54
2022-12-19T15:34:51.967Z,0.52
2022-12-19T15:37:18.061Z,0.52
2022-12-19T15:39:49.329Z,0.52
2022-12-19T15:42:24.765Z,0.52
2022-12-19T15:44:58.768Z,0.50
2022-12-19T15:47:34.976Z,0.51
2022-12-19T15:50:17.591Z,0.50
2022-12-19T15:52:49.606Z,0.48
2022-12-19T15:55:22.851Z,0.48
2022-12-19T15:57:57.595Z,0.44
2022-12-19T16:00:31.318Z,0.47
2022-12-19T16:05:52.397Z,0.45
2022-12-19T16:08:26.962Z,0.47
2022-12-19T16:11:02.041Z,0.48
2022-12-19T16:13:36.518Z,0.48
2022-12-19T16:16:15.060Z,0.49
2022-12-19T16:18:46.412Z,0.49
2022-12-19T16:21:29.629Z,0.48
2022-12-19T16:24:06.012Z,0.47
2022-12-19T16:26:40.162Z,0.43
2022-12-19T16:29:20.532Z,0.41
2022-12-19T16:31:50.854Z,0.42
2022-12-19T16:34:23.696Z,0.45
2022-12-19T16:36:55.433Z,0.42
2022-12-19T16:39:25.333Z,0.43
2022-12-19T16:41:55.337Z,0.41
2022-12-19T16:44:25.574Z,0.38
2022-12-19T16:46:54.370Z,0.40
2022-12-19T16:49:24.154Z,0.41
2022-12-19T16:51:53.789Z,0.36
2022-12-19T16:54:23.743Z,0.35
2022-12-19T16:56:57.014Z,0.34
2022-12-19T16:59:33.188Z,0.32
2022-12-19T17:02:04.889Z,0.32
2022-12-19T17:04:34.356Z,0.29
2022-12-19T17:07:04.924Z,0.28
2022-12-19T17:09:34.469Z,0.23
2022-12-19T17:12:06.723Z,0.21
2022-12-19T17:14:36.364Z,0.22
2022-12-19T17:17:06.118Z,0.19
2022-12-19T17:19:42.824Z,0.10
2022-12-19T17:22:15.971Z,0.06
2022-12-19T17:24:49.479Z,0.07
2022-12-19T17:27:23.521Z,0.05
2022-12-19T17:29:52.913Z,0.05
2022-12-19T17:32:24.517Z,0.07
2022-12-19T17:34:55.575Z,0.04
2022-12-19T17:37:25.310Z,0.01
2022-12-19T17:39:55.539Z,-0.03
2022-12-19T17:42:30.871Z,-0.03
2022-12-19T17:45:04.795Z,-0.03
2022-12-19T17:47:34.077Z,-0.03
2022-12-19T17:50:03.468Z,-0.05
2022-12-19T17:52:37.182Z,-0.04
2022-12-19T17:55:22.537Z,-0.06
2022-12-19T17:57:54.371Z,-0.10
2022-12-19T18:00:30.601Z,-0.10
2022-12-19T18:03:07.660Z,-0.12
2022-12-19T18:05:39.176Z,-0.14
2022-12-19T18:08:26.105Z,-0.15
2022-12-19T18:10:58.155Z,-0.17
2022-12-19T18:13:32.304Z,-0.22
2022-12-19T18:16:04.164Z,-0.16
2022-12-19T18:18:37.495Z,-0.16
2022-12-19T18:21:07.527Z,-0.19
2022-12-19T18:23:37.152Z,-0.19
2022-12-19T18:26:08.643Z,-0.23
2022-12-19T18:28:40.021Z,-0.21
2022-12-19T18:31:18.025Z,-0.22
2022-12-19T18:33:48.988Z,-0.25
2022-12-19T18:36:23.571Z,-0.25
2022-12-19T18:38:53.805Z,-0.26
2022-12-19T18:41:23.355Z,-0.31
2022-12-19T18:43:55.334Z,-0.34
2022-12-19T18:46:29.639Z,-0.35
2022-12-19T18:48:59.988Z,-0.34
2022-12-19T18:51:30.304Z,-0.33
2022-12-19T18:54:00.238Z,-0.35
2022-12-19T18:56:29.153Z,-0.40
2022-12-19T18:59:04.393Z,-0.44
2022-12-19T19:01:34.873Z,-0.45
2022-12-19T19:04:05.046Z,-0.43
2022-12-19T19:06:38.237Z,-0.41
2022-12-19T19:09:17.793Z,-0.39
2022-12-19T19:11:48.485Z,-0.39
2022-12-19T19:14:19.600Z,-0.39
2022-12-19T19:16:49.896Z,-0.40
2022-12-19T19:19:21.039Z,-0.41
2022-12-19T19:21:51.298Z,-0.43
2022-12-19T19:24:24.592Z,-0.40
2022-12-19T19:26:53.685Z,-0.39
2022-12-19T19:29:26.451Z,-0.37
2022-12-19T19:31:57.165Z,-0.35
2022-12-19T19:34:33.333Z,-0.34
2022-12-19T19:37:08.673Z,-0.31
2022-12-19T19:39:40.304Z,-0.29
2022-12-19T19:42:09.711Z,-0.25
2022-12-19T19:44:41.350Z,-0.23
2022-12-19T19:47:11.723Z,-0.20
2022-12-19T19:49:41.416Z,-0.19
2022-12-19T19:52:10.868Z,-0.17
2022-12-19T19:54:41.285Z,-0.14
2022-12-19T19:57:10.941Z,-0.09
2022-12-19T19:59:42.253Z,-0.08
2022-12-19T20:02:12.382Z,-0.08
2022-12-19T20:04:47.218Z,-0.06
2022-12-19T20:07:17.342Z,-0.04
2022-12-19T20:09:48.004Z,-0.02
2022-12-19T20:12:17.069Z,-0.01
2022-12-19T20:14:49.296Z,0.02
2022-12-19T20:17:18.937Z,0.03
2022-12-19T20:19:49.681Z,0.00
2022-12-19T20:22:18.614Z,0.03
2022-12-19T20:24:48.334Z,0.05
2022-12-19T20:27:18.338Z,0.06
2022-12-19T20:29:49.353Z,0.05
2022-12-19T20:32:19.130Z,0.08
2022-12-19T20:34:49.522Z,0.09
2022-12-19T20:37:19.614Z,0.08
2022-12-19T20:39:49.880Z,0.10
2022-12-19T20:42:19.588Z,0.11
2022-12-19T20:44:51.197Z,0.13
2022-12-19T20:47:20.756Z,0.14
2022-12-19T20:49:51.529Z,0.15
2022-12-19T20:52:22.138Z,0.18
2022-12-19T20:54:52.461Z,0.19
2022-12-19T20:57:21.730Z,0.20
2022-12-19T20:59:53.171Z,0.21
2022-12-19T21:02:23.028Z,0.20
2022-12-19T21:04:52.699Z,0.19
2022-12-19T21:07:23.306Z,0.20
2022-12-19T21:09:54.658Z,0.21
2022-12-19T21:12:23.724Z,0.21
2022-12-19T21:14:54.578Z,0.23
2022-12-19T21:17:24.065Z,0.24
2022-12-19T21:19:53.416Z,0.24
2022-12-19T21:22:23.214Z,0.25
2022-12-19T21:24:53.400Z,0.27
2022-12-19T21:27:22.891Z,0.27
2022-12-19T21:29:53.442Z,0.25
2022-12-19T21:32:22.760Z,0.27
2022-12-19T21:34:55.111Z,0.28
2022-12-19T21:37:24.351Z,0.31
2022-12-19T21:39:55.063Z,0.32
2022-12-19T21:42:25.533Z,0.33
2022-12-19T21:44:56.883Z,0.33
2022-12-19T21:47:26.313Z,0.31
2022-12-19T21:49:57.016Z,0.33
2022-12-19T21:52:25.502Z,0.34
2022-12-19T21:54:55.552Z,0.35
2022-12-19T21:57:26.273Z,0.37
2022-12-19T21:59:58.053Z,0.37
2022-12-19T22:02:27.233Z,0.38
2022-12-19T22:04:57.117Z,0.38
2022-12-19T22:07:26.829Z,0.37
2022-12-19T22:09:57.584Z,0.40
2022-12-19T22:12:27.547Z,0.40
2022-12-19T22:14:58.465Z,0.41
2022-12-19T22:17:28.054Z,0.42
2022-12-19T22:19:57.834Z,0.45
2022-12-19T22:22:27.469Z,0.47
2022-12-19T22:24:58.183Z,0.49
2022-12-19T22:27:27.312Z,0.50
2022-12-19T22:30:02.083Z,0.52
2022-12-19T22:32:35.299Z,0.50
2022-12-19T22:35:05.256Z,0.52
2022-12-19T22:37:36.007Z,0.52
2022-12-19T22:40:07.006Z,0.53
2022-12-19T22:42:36.896Z,0.57
2022-12-19T22:45:11.002Z,0.59
2022-12-19T22:47:44.581Z,0.60
2022-12-19T22:50:16.205Z,0.62
2022-12-19T22:52:46.028Z,0.65
2022-12-19T22:55:15.214Z,0.65
2022-12-19T22:57:45.541Z,0.65
2022-12-19T23:00:16.991Z,0.66
2022-12-19T23:02:47.908Z,0.67
2022-12-19T23:05:18.168Z,0.70
2022-12-19T23:07:47.209Z,0.70
2022-12-19T23:10:17.817Z,0.70
2022-12-19T23:12:46.768Z,0.72
2022-12-19T23:15:17.872Z,0.73
2022-12-19T23:17:47.029Z,0.74
2022-12-19T23:20:16.089Z,0.76
2022-12-19T23:22:45.971Z,0.77
2022-12-19T23:25:16.515Z,0.76
2022-12-19T23:27:47.295Z,0.76
2022-12-19T23:30:17.480Z,0.77
2022-12-19T23:32:50.786Z,0.78
2022-12-19T23:35:20.819Z,0.78
2022-12-19T23:37:50.961Z,0.79
2022-12-19T23:40:20.299Z,0.77
2022-12-19T23:42:49.474Z,0.78
2022-12-19T23:45:20.186Z,0.77
2022-12-19T23:47:50.212Z,0.77
2022-12-19T23:50:21.187Z,0.77
2022-12-19T23:52:50.529Z,0.76
2022-12-19T23:55:21.667Z,0.76
2022-12-19T23:57:51.652Z,0.74
